sensor_id;sensor_type;location;lat;lon;timestamp;pressure;altitude;pressure_sealevel;temperature;humidity
7297;BME280;40758;54.038;11.684;2024-03-23T00:51:50;100657.22;;;5.57;100.00
7297;BME280;40758;54.038;11.684;2024-03-23T00:54:16;100645.16;;;5.53;100.00
7297;BME280;40758;54.038;11.684;2024-03-23T00:56:41;100647.00;;;5.53;100.00
7297;BME280;40758;54.038;11.684;2024-03-23T00:59:07;100636.44;;;5.51;100.00
7297;BME280;40758;54.038;11.684;2024-03-23T01:01:33;100626.44;;;5.45;100.00
7297;BME280;40758;54.038;11.684;2024-03-23T01:03:59;100620.59;;;5.42;100.00
7297;BME280;40758;54.038;11.684;2024-03-23T01:06:24;100628.84;;;5.40;100.00
7297;BME280;40758;54.038;11.684;2024-03-23T01:08:50;100635.91;;;5.41;100.00
7297;BME280;40758;54.038;11.684;2024-03-23T01:11:16;100630.53;;;5.41;100.00
7297;BME280;40758;54.038;11.684;2024-03-23T01:13:42;100628.84;;;5.40;100.00
7297;BME280;40758;54.038;11.684;2024-03-23T01:16:07;100623.47;;;5.40;100.00
7297;BME280;40758;54.038;11.684;2024-03-23T01:18:33;100620.13;;;5.38;100.00
7297;BME280;40758;54.038;11.684;2024-03-23T01:20:59;100613.84;;;5.31;100.00
7297;BME280;40758;54.038;11.684;2024-03-23T01:23:24;100608.84;;;5.28;100.00
7297;BME280;40758;54.038;11.684;2024-03-23T01:25:54;100613.19;;;5.29;100.00
7297;BME280;40758;54.038;11.684;2024-03-23T01:28:20;100610.50;;;5.29;100.00
7297;BME280;40758;54.038;11.684;2024-03-23T01:30:46;100604.84;;;5.24;100.00
7297;BME280;40758;54.038;11.684;2024-03-23T01:33:12;100611.69;;;5.26;100.00
7297;BME280;40758;54.038;11.684;2024-03-23T01:35:38;100606.25;;;5.20;100.00
7297;BME280;40758;54.038;11.684;2024-03-23T01:38:04;100608.94;;;5.20;100.00
7297;BME280;40758;54.038;11.684;2024-03-23T01:40:30;100606.25;;;5.20;100.00
7297;BME280;40758;54.038;11.684;2024-03-23T01:43:05;100608.09;;;5.19;100.00
7297;BME280;40758;54.038;11.684;2024-03-23T01:45:34;100596.03;;;5.15;100.00
7297;BME280;40758;54.038;11.684;2024-03-23T01:48:01;100593.75;;;5.12;100.00
7297;BME280;40758;54.038;11.684;2024-03-23T01:50:27;100590.59;;;5.08;100.00
7297;BME280;40758;54.038;11.684;2024-03-23T01:52:53;100597.63;;;5.10;100.00
7297;BME280;40758;54.038;11.684;2024-03-23T01:55:20;100596.16;;;5.07;100.00
7297;BME280;40758;54.038;11.684;2024-03-23T01:57:46;100579.56;;;5.03;100.00
7297;BME280;40758;54.038;11.684;2024-03-23T02:00:14;100573.53;;;5.01;100.00
7297;BME280;40758;54.038;11.684;2024-03-23T02:02:46;100567.50;;;4.99;100.00
7297;BME280;40758;54.038;11.684;2024-03-23T02:05:12;100562.13;;;4.99;100.00
7297;BME280;40758;54.038;11.684;2024-03-23T02:07:42;100573.91;;;4.98;100.00
7297;BME280;40758;54.038;11.684;2024-03-23T02:10:09;100573.66;;;4.93;100.00
7297;BME280;40758;54.038;11.684;2024-03-23T02:12:40;100563.44;;;4.89;100.00
7297;BME280;40758;54.038;11.684;2024-03-23T02:15:06;100559.47;;;4.85;100.00
7297;BME280;40758;54.038;11.684;2024-03-23T02:17:34;100551.50;;;4.76;100.00
7297;BME280;40758;54.038;11.684;2024-03-23T02:20:01;100556.41;;;4.73;100.00
7297;BME280;40758;54.038;11.684;2024-03-23T02:22:39;100550.97;;;4.66;100.00
7297;BME280;40758;54.038;11.684;2024-03-23T02:25:07;100548.91;;;4.68;100.00
7297;BME280;40758;54.038;11.684;2024-03-23T02:27:33;100546.06;;;4.70;100.00
7297;BME280;40758;54.038;11.684;2024-03-23T02:30:00;100539.44;;;4.72;100.00
7297;BME280;40758;54.038;11.684;2024-03-23T02:32:26;100544.84;;;4.72;100.00
7297;BME280;40758;54.038;11.684;2024-03-23T02:34:51;100545.38;;;4.68;100.00
7297;BME280;40758;54.038;11.684;2024-03-23T02:37:17;100547.44;;;4.66;100.00
7297;BME280;40758;54.038;11.684;2024-03-23T02:39:44;100544.28;;;4.62;100.00
7297;BME280;40758;54.038;11.684;2024-03-23T02:42:09;100526.69;;;4.60;100.00
7297;BME280;40758;54.038;11.684;2024-03-23T02:44:36;100527.44;;;4.53;100.00
7297;BME280;40758;54.038;11.684;2024-03-23T02:47:02;100521.38;;;4.51;100.00
7297;BME280;40758;54.038;11.684;2024-03-23T02:49:28;100526.94;;;4.50;100.00
7297;BME280;40758;54.038;11.684;2024-03-23T02:51:53;100531.22;;;4.44;100.00
7297;BME280;40758;54.038;11.684;2024-03-23T02:54:19;100524.94;;;4.37;100.00
7297;BME280;40758;54.038;11.684;2024-03-23T02:56:44;100523.91;;;4.38;100.00
7297;BME280;40758;54.038;11.684;2024-03-23T02:59:10;100521.41;;;4.37;100.00
7297;BME280;40758;54.038;11.684;2024-03-23T03:01:36;100525.75;;;4.38;100.00
7297;BME280;40758;54.038;11.684;2024-03-23T03:04:02;100511.09;;;4.40;100.00
7297;BME280;40758;54.038;11.684;2024-03-23T03:06:27;100507.78;;;4.38;100.00
7297;BME280;40758;54.038;11.684;2024-03-23T03:08:53;100508.31;;;4.34;100.00
7297;BME280;40758;54.038;11.684;2024-03-23T03:11:20;100507.88;;;4.30;100.00
7297;BME280;40758;54.038;11.684;2024-03-23T03:13:45;100496.66;;;4.26;100.00
7297;BME280;40758;54.038;11.684;2024-03-23T03:16:11;100497.41;;;4.20;100.00
7297;BME280;40758;54.038;11.684;2024-03-23T03:18:38;100495.75;;;4.19;100.00
7297;BME280;40758;54.038;11.684;2024-03-23T03:21:05;100483.50;;;4.17;100.00
7297;BME280;40758;54.038;11.684;2024-03-23T03:23:37;100484.53;;;4.16;100.00
7297;BME280;40758;54.038;11.684;2024-03-23T03:26:04;100494.81;;;4.12;100.00
7297;BME280;40758;54.038;11.684;2024-03-23T03:28:31;100487.94;;;4.10;100.00
7297;BME280;40758;54.038;11.684;2024-03-23T03:30:59;100486.84;;;4.04;100.00
7297;BME280;40758;54.038;11.684;2024-03-23T03:33:26;100482.00;;;3.99;100.00
7297;BME280;40758;54.038;11.684;2024-03-23T03:35:52;100475.38;;;3.95;100.00
7297;BME280;40758;54.038;11.684;2024-03-23T03:38:18;100481.38;;;3.97;100.00
7297;BME280;40758;54.038;11.684;2024-03-23T03:40:44;100479.44;;;3.91;100.00
7297;BME280;40758;54.038;11.684;2024-03-23T03:43:10;100465.72;;;3.86;100.00
7297;BME280;40758;54.038;11.684;2024-03-23T03:45:36;100470.78;;;3.81;100.00
7297;BME280;40758;54.038;11.684;2024-03-23T03:48:02;100461.16;;;3.72;100.00
7297;BME280;40758;54.038;11.684;2024-03-23T03:50:28;100472.75;;;3.72;100.00
7297;BME280;40758;54.038;11.684;2024-03-23T03:52:54;100474.13;;;3.68;100.00
7297;BME280;40758;54.038;11.684;2024-03-23T03:55:19;100461.06;;;3.65;100.00
7297;BME280;40758;54.038;11.684;2024-03-23T03:57:45;100453.56;;;3.61;100.00
7297;BME280;40758;54.038;11.684;2024-03-23T04:00:11;100461.13;;;3.57;100.00
7297;BME280;40758;54.038;11.684;2024-03-23T04:02:37;100447.63;;;3.51;100.00
7297;BME280;40758;54.038;11.684;2024-03-23T04:05:04;100448.81;;;3.48;100.00
7297;BME280;40758;54.038;11.684;2024-03-23T04:07:30;100448.53;;;3.43;100.00
7297;BME280;40758;54.038;11.684;2024-03-23T04:09:56;100439.06;;;3.32;100.00
7297;BME280;40758;54.038;11.684;2024-03-23T04:12:21;100436.28;;;3.26;100.00
7297;BME280;40758;54.038;11.684;2024-03-23T04:14:47;100434.25;;;3.28;100.00
7297;BME280;40758;54.038;11.684;2024-03-23T04:17:13;100428.38;;;3.24;100.00
7297;BME280;40758;54.038;11.684;2024-03-23T04:19:38;100416.38;;;3.20;100.00
7297;BME280;40758;54.038;11.684;2024-03-23T04:22:05;100415.69;;;3.18;100.00
7297;BME280;40758;54.038;11.684;2024-03-23T04:24:30;100417.38;;;3.19;100.00
7297;BME280;40758;54.038;11.684;2024-03-23T04:26:56;100428.38;;;3.24;100.00
7297;BME280;40758;54.038;11.684;2024-03-23T04:29:22;100428.03;;;3.27;100.00
7297;BME280;40758;54.038;11.684;2024-03-23T04:31:47;100421.66;;;3.28;100.00
7297;BME280;40758;54.038;11.684;2024-03-23T04:34:13;100422.97;;;3.32;100.00
7297;BME280;40758;54.038;11.684;2024-03-23T04:36:39;100412.13;;;3.26;100.00
7297;BME280;40758;54.038;11.684;2024-03-23T04:39:05;100415.66;;;3.26;100.00
7297;BME280;40758;54.038;11.684;2024-03-23T04:41:35;100412.28;;;3.24;100.00
7297;BME280;40758;54.038;11.684;2024-03-23T04:44:01;100411.75;;;3.29;100.00
7297;BME280;40758;54.038;11.684;2024-03-23T04:46:27;100412.97;;;3.26;100.00
7297;BME280;40758;54.038;11.684;2024-03-23T04:48:53;100411.28;;;3.25;100.00
7297;BME280;40758;54.038;11.684;2024-03-23T04:51:25;100412.13;;;3.26;100.00
7297;BME280;40758;54.038;11.684;2024-03-23T04:53:51;100393.63;;;3.31;100.00
7297;BME280;40758;54.038;11.684;2024-03-23T04:56:18;100407.31;;;3.36;100.00
7297;BME280;40758;54.038;11.684;2024-03-23T04:58:44;100405.50;;;3.36;100.00
7297;BME280;40758;54.038;11.684;2024-03-23T05:01:11;100408.63;;;3.40;100.00
7297;BME280;40758;54.038;11.684;2024-03-23T05:03:36;100408.09;;;3.44;100.00
7297;BME280;40758;54.038;11.684;2024-03-23T05:06:02;100405.00;;;3.47;100.00
7297;BME280;40758;54.038;11.684;2024-03-23T05:08:28;100404.28;;;3.54;100.00
7297;BME280;40758;54.038;11.684;2024-03-23T05:10:54;100391.53;;;3.56;100.00
7297;BME280;40758;54.038;11.684;2024-03-23T05:13:19;100382.44;;;3.57;100.00
7297;BME280;40758;54.038;11.684;2024-03-23T05:15:52;100379.47;;;3.52;100.00
7297;BME280;40758;54.038;11.684;2024-03-23T05:18:18;100384.84;;;3.37;100.00
7297;BME280;40758;54.038;11.684;2024-03-23T05:20:43;100398.13;;;3.30;100.00
7297;BME280;40758;54.038;11.684;2024-03-23T05:23:09;100390.19;;;3.22;100.00
7297;BME280;40758;54.038;11.684;2024-03-23T05:25:35;100399.78;;;3.16;100.00
7297;BME280;40758;54.038;11.684;2024-03-23T05:28:01;100399.03;;;3.08;100.00
7297;BME280;40758;54.038;11.684;2024-03-23T05:30:27;100409.47;;;3.03;100.00
7297;BME280;40758;54.038;11.684;2024-03-23T05:32:54;100399.63;;;2.95;100.00
7297;BME280;40758;54.038;11.684;2024-03-23T05:35:19;100409.53;;;2.94;100.00
7297;BME280;40758;54.038;11.684;2024-03-23T05:37:45;100396.78;;;2.97;100.00
7297;BME280;40758;54.038;11.684;2024-03-23T05:40:11;100397.34;;;3.07;100.00
7297;BME280;40758;54.038;11.684;2024-03-23T05:42:38;100402.94;;;3.20;100.00
7297;BME280;40758;54.038;11.684;2024-03-23T05:45:04;100396.97;;;3.33;100.00
7297;BME280;40758;54.038;11.684;2024-03-23T05:47:32;100385.59;;;3.45;100.00
7297;BME280;40758;54.038;11.684;2024-03-23T05:49:57;100385.13;;;3.57;100.00
7297;BME280;40758;54.038;11.684;2024-03-23T05:52:23;100380.53;;;3.65;100.00
7297;BME280;40758;54.038;11.684;2024-03-23T05:54:51;100376.97;;;3.65;100.00
7297;BME280;40758;54.038;11.684;2024-03-23T05:57:17;100383.28;;;3.72;100.00
7297;BME280;40758;54.038;11.684;2024-03-23T05:59:44;100392.47;;;3.78;100.00
7297;BME280;40758;54.038;11.684;2024-03-23T06:02:11;100382.34;;;3.80;100.00
7297;BME280;40758;54.038;11.684;2024-03-23T06:04:36;100390.31;;;3.88;100.00
7297;BME280;40758;54.038;11.684;2024-03-23T06:07:03;100391.41;;;3.93;100.00
7297;BME280;40758;54.038;11.684;2024-03-23T06:09:32;100393.53;;;3.98;100.00
7297;BME280;40758;54.038;11.684;2024-03-23T06:11:58;100396.31;;;4.05;100.00
7297;BME280;40758;54.038;11.684;2024-03-23T06:14:23;100386.75;;;4.17;100.00
7297;BME280;40758;54.038;11.684;2024-03-23T06:16:49;100389.97;;;4.27;100.00
7297;BME280;40758;54.038;11.684;2024-03-23T06:19:15;100383.84;;;4.33;100.00
7297;BME280;40758;54.038;11.684;2024-03-23T06:21:44;100391.41;;;4.44;100.00
7297;BME280;40758;54.038;11.684;2024-03-23T06:24:11;100395.66;;;4.53;100.00
7297;BME280;40758;54.038;11.684;2024-03-23T06:26:37;100386.63;;;4.61;100.00
7297;BME280;40758;54.038;11.684;2024-03-23T06:29:03;100385.31;;;4.72;100.00
7297;BME280;40758;54.038;11.684;2024-03-23T06:31:32;100386.00;;;4.80;100.00
7297;BME280;40758;54.038;11.684;2024-03-23T06:33:57;100368.25;;;4.86;100.00
7297;BME280;40758;54.038;11.684;2024-03-23T06:36:23;100368.13;;;4.94;100.00
7297;BME280;40758;54.038;11.684;2024-03-23T06:38:50;100370.69;;;5.02;100.00
7297;BME280;40758;54.038;11.684;2024-03-23T06:41:17;100370.09;;;5.07;100.00
7297;BME280;40758;54.038;11.684;2024-03-23T06:43:43;100365.34;;;5.09;100.00
7297;BME280;40758;54.038;11.684;2024-03-23T06:46:08;100366.81;;;5.12;100.00
7297;BME280;40758;54.038;11.684;2024-03-23T06:48:34;100361.44;;;5.12;100.00
7297;BME280;40758;54.038;11.684;2024-03-23T06:51:00;100363.47;;;5.10;100.00
7297;BME280;40758;54.038;11.684;2024-03-23T06:53:25;100353.16;;;5.13;100.00
7297;BME280;40758;54.038;11.684;2024-03-23T06:55:52;100357.97;;;5.18;100.00
7297;BME280;40758;54.038;11.684;2024-03-23T06:58:23;100356.56;;;5.22;100.00
7297;BME280;40758;54.038;11.684;2024-03-23T07:00:50;100358.47;;;5.28;100.00
7297;BME280;40758;54.038;11.684;2024-03-23T07:03:19;100349.59;;;5.34;100.00
7297;BME280;40758;54.038;11.684;2024-03-23T07:05:45;100351.75;;;5.45;100.00
7297;BME280;40758;54.038;11.684;2024-03-23T07:08:12;100338.56;;;5.57;100.00
7297;BME280;40758;54.038;11.684;2024-03-23T07:10:40;100345.66;;;5.65;100.00
7297;BME280;40758;54.038;11.684;2024-03-23T07:13:06;100349.63;;;5.69;100.00
7297;BME280;40758;54.038;11.684;2024-03-23T07:15:33;100350.63;;;5.68;100.00
7297;BME280;40758;54.038;11.684;2024-03-23T07:17:59;100347.53;;;5.71;100.00
7297;BME280;40758;54.038;11.684;2024-03-23T07:20:24;100350.88;;;5.79;100.00
7297;BME280;40758;54.038;11.684;2024-03-23T07:22:50;100356.97;;;5.88;100.00
7297;BME280;40758;54.038;11.684;2024-03-23T07:25:16;100353.94;;;5.98;100.00
7297;BME280;40758;54.038;11.684;2024-03-23T07:27:42;100345.69;;;6.12;100.00
7297;BME280;40758;54.038;11.684;2024-03-23T07:30:08;100348.59;;;6.18;100.00
7297;BME280;40758;54.038;11.684;2024-03-23T07:32:35;100346.31;;;6.14;100.00
7297;BME280;40758;54.038;11.684;2024-03-23T07:35:01;100348.22;;;6.21;100.00
7297;BME280;40758;54.038;11.684;2024-03-23T07:37:28;100340.16;;;6.27;100.00
7297;BME280;40758;54.038;11.684;2024-03-23T07:39:54;100340.78;;;6.36;100.00
7297;BME280;40758;54.038;11.684;2024-03-23T07:42:20;100334.78;;;6.47;100.00
7297;BME280;40758;54.038;11.684;2024-03-23T07:44:46;100331.09;;;6.88;100.00
7297;BME280;40758;54.038;11.684;2024-03-23T07:47:12;100330.47;;;7.06;100.00
7297;BME280;40758;54.038;11.684;2024-03-23T07:49:38;100338.97;;;7.29;100.00
7297;BME280;40758;54.038;11.684;2024-03-23T07:52:05;100338.84;;;7.89;100.00
7297;BME280;40758;54.038;11.684;2024-03-23T07:54:31;100328.09;;;8.20;100.00
7297;BME280;40758;54.038;11.684;2024-03-23T07:56:57;100320.28;;;8.44;100.00
7297;BME280;40758;54.038;11.684;2024-03-23T07:59:23;100321.63;;;8.66;100.00
7297;BME280;40758;54.038;11.684;2024-03-23T08:01:48;100306.06;;;8.55;100.00
7297;BME280;40758;54.038;11.684;2024-03-23T08:04:14;100311.13;;;8.45;100.00
7297;BME280;40758;54.038;11.684;2024-03-23T08:06:40;100308.69;;;8.37;100.00
7297;BME280;40758;54.038;11.684;2024-03-23T08:09:06;100310.84;;;8.15;100.00
7297;BME280;40758;54.038;11.684;2024-03-23T08:11:32;100305.16;;;7.91;100.00
7297;BME280;40758;54.038;11.684;2024-03-23T08:14:00;100301.66;;;7.71;100.00
7297;BME280;40758;54.038;11.684;2024-03-23T08:16:27;100306.53;;;7.56;100.00
7297;BME280;40758;54.038;11.684;2024-03-23T08:18:53;100302.41;;;7.40;100.00
7297;BME280;40758;54.038;11.684;2024-03-23T08:21:21;100308.22;;;7.43;100.00
7297;BME280;40758;54.038;11.684;2024-03-23T08:23:46;100307.16;;;7.51;100.00
7297;BME280;40758;54.038;11.684;2024-03-23T08:26:14;100297.78;;;7.54;100.00
7297;BME280;40758;54.038;11.684;2024-03-23T08:28:40;100293.59;;;7.64;100.00
7297;BME280;40758;54.038;11.684;2024-03-23T08:31:13;100299.59;;;7.73;100.00
7297;BME280;40758;54.038;11.684;2024-03-23T08:33:40;100303.09;;;7.80;100.00
7297;BME280;40758;54.038;11.684;2024-03-23T08:36:09;100296.63;;;7.88;100.00
7297;BME280;40758;54.038;11.684;2024-03-23T08:38:37;100289.38;;;7.82;100.00
7297;BME280;40758;54.038;11.684;2024-03-23T08:41:10;100289.81;;;7.79;100.00
7297;BME280;40758;54.038;11.684;2024-03-23T08:43:38;100287.13;;;7.72;100.00
7297;BME280;40758;54.038;11.684;2024-03-23T08:46:11;100277.88;;;7.93;100.00
7297;BME280;40758;54.038;11.684;2024-03-23T08:48:42;100287.53;;;8.20;100.00
7297;BME280;40758;54.038;11.684;2024-03-23T08:51:10;100284.44;;;8.55;100.00
7297;BME280;40758;54.038;11.684;2024-03-23T08:53:36;100272.06;;;8.91;100.00
7297;BME280;40758;54.038;11.684;2024-03-23T08:56:04;100269.38;;;9.09;100.00
7297;BME280;40758;54.038;11.684;2024-03-23T08:58:30;100275.69;;;9.28;100.00
7297;BME280;40758;54.038;11.684;2024-03-23T09:01:02;100269.03;;;9.24;100.00
7297;BME280;40758;54.038;11.684;2024-03-23T09:03:29;100252.78;;;9.42;100.00
7297;BME280;40758;54.038;11.684;2024-03-23T09:05:54;100252.50;;;9.69;100.00
7297;BME280;40758;54.038;11.684;2024-03-23T09:08:21;100243.84;;;10.20;100.00
7297;BME280;40758;54.038;11.684;2024-03-23T09:10:47;100237.03;;;10.59;100.00
7297;BME280;40758;54.038;11.684;2024-03-23T09:13:14;100224.31;;;10.83;100.00
7297;BME280;40758;54.038;11.684;2024-03-23T09:15:47;100218.50;;;11.38;100.00
7297;BME280;40758;54.038;11.684;2024-03-23T09:18:14;100216.97;;;11.71;100.00
7297;BME280;40758;54.038;11.684;2024-03-23T09:20:39;100204.28;;;12.17;100.00
7297;BME280;40758;54.038;11.684;2024-03-23T09:23:05;100206.38;;;12.43;100.00
7297;BME280;40758;54.038;11.684;2024-03-23T09:25:31;100198.22;;;12.77;100.00
7297;BME280;40758;54.038;11.684;2024-03-23T09:27:58;100199.47;;;13.08;100.00
7297;BME280;40758;54.038;11.684;2024-03-23T09:30:24;100192.50;;;12.95;100.00
7297;BME280;40758;54.038;11.684;2024-03-23T09:32:49;100196.88;;;12.46;100.00
7297;BME280;40758;54.038;11.684;2024-03-23T09:35:15;100196.63;;;12.31;100.00
7297;BME280;40758;54.038;11.684;2024-03-23T09:37:41;100198.69;;;12.40;100.00
7297;BME280;40758;54.038;11.684;2024-03-23T09:40:10;100195.31;;;11.88;100.00
7297;BME280;40758;54.038;11.684;2024-03-23T09:42:37;100191.91;;;11.69;100.00
7297;BME280;40758;54.038;11.684;2024-03-23T09:45:11;100191.75;;;12.33;100.00
7297;BME280;40758;54.038;11.684;2024-03-23T09:47:40;100189.09;;;13.05;100.00
7297;BME280;40758;54.038;11.684;2024-03-23T09:50:07;100183.75;;;13.32;100.00
7297;BME280;40758;54.038;11.684;2024-03-23T09:52:33;100175.91;;;13.57;100.00
7297;BME280;40758;54.038;11.684;2024-03-23T09:54:58;100177.38;;;13.04;100.00
7297;BME280;40758;54.038;11.684;2024-03-23T09:57:24;100166.97;;;13.01;100.00
7297;BME280;40758;54.038;11.684;2024-03-23T09:59:50;100178.91;;;12.62;100.00
7297;BME280;40758;54.038;11.684;2024-03-23T10:02:18;100175.41;;;12.83;100.00
7297;BME280;40758;54.038;11.684;2024-03-23T10:04:46;100178.78;;;12.90;100.00
7297;BME280;40758;54.038;11.684;2024-03-23T10:07:21;100178.25;;;13.10;100.00
7297;BME280;40758;54.038;11.684;2024-03-23T10:09:50;100179.53;;;12.69;100.00
7297;BME280;40758;54.038;11.684;2024-03-23T10:12:19;100179.03;;;12.89;100.00
7297;BME280;40758;54.038;11.684;2024-03-23T10:14:45;100164.56;;;11.76;100.00
7297;BME280;40758;54.038;11.684;2024-03-23T10:17:16;100160.56;;;12.07;100.00
7297;BME280;40758;54.038;11.684;2024-03-23T10:19:48;100154.84;;;13.31;100.00
7297;BME280;40758;54.038;11.684;2024-03-23T10:22:20;100153.22;;;13.13;100.00
7297;BME280;40758;54.038;11.684;2024-03-23T10:24:47;100154.59;;;11.93;100.00
7297;BME280;40758;54.038;11.684;2024-03-23T10:27:20;100153.47;;;12.22;100.00
7297;BME280;40758;54.038;11.684;2024-03-23T10:29:49;100146.31;;;13.05;100.00
7297;BME280;40758;54.038;11.684;2024-03-23T10:32:16;100148.50;;;13.47;100.00
7297;BME280;40758;54.038;11.684;2024-03-23T10:34:42;100151.44;;;13.41;100.00
7297;BME280;40758;54.038;11.684;2024-03-23T10:37:09;100136.72;;;13.96;100.00
7297;BME280;40758;54.038;11.684;2024-03-23T10:39:37;100149.66;;;13.78;100.00
7297;BME280;40758;54.038;11.684;2024-03-23T10:42:05;100151.56;;;12.73;100.00
7297;BME280;40758;54.038;11.684;2024-03-23T10:44:31;100138.78;;;12.40;100.00
7297;BME280;40758;54.038;11.684;2024-03-23T10:46:58;100126.56;;;12.98;100.00
7297;BME280;40758;54.038;11.684;2024-03-23T10:52:03;100122.34;;;14.37;100.00
7297;BME280;40758;54.038;11.684;2024-03-23T10:54:30;100115.38;;;14.94;100.00
7297;BME280;40758;54.038;11.684;2024-03-23T10:59:31;100099.59;;;16.15;100.00
7297;BME280;40758;54.038;11.684;2024-03-23T11:01:59;100119.03;;;16.64;99.10
7297;BME280;40758;54.038;11.684;2024-03-23T11:04:35;100110.56;;;16.30;91.44
7297;BME280;40758;54.038;11.684;2024-03-23T11:09:49;100110.13;;;13.81;100.00
7297;BME280;40758;54.038;11.684;2024-03-23T11:14:54;100110.22;;;14.98;85.61
7297;BME280;40758;54.038;11.684;2024-03-23T11:17:22;100100.97;;;16.12;88.44
7297;BME280;40758;54.038;11.684;2024-03-23T11:20:04;100112.03;;;15.44;68.74
7297;BME280;40758;54.038;11.684;2024-03-23T11:22:47;100130.50;;;13.73;92.85
7297;BME280;40758;54.038;11.684;2024-03-23T11:25:22;100153.53;;;11.54;100.00
7297;BME280;40758;54.038;11.684;2024-03-23T11:27:56;100144.09;;;9.80;100.00
7297;BME280;40758;54.038;11.684;2024-03-23T11:30:27;100151.84;;;8.73;100.00
7297;BME280;40758;54.038;11.684;2024-03-23T11:32:55;100146.94;;;8.14;100.00
7297;BME280;40758;54.038;11.684;2024-03-23T11:35:37;100149.09;;;7.73;100.00
7297;BME280;40758;54.038;11.684;2024-03-23T11:40:42;100148.38;;;7.02;100.00
7297;BME280;40758;54.038;11.684;2024-03-23T11:43:09;100154.91;;;6.68;100.00
7297;BME280;40758;54.038;11.684;2024-03-23T11:48:16;100143.03;;;5.76;100.00
7297;BME280;40758;54.038;11.684;2024-03-23T11:50:46;100139.28;;;5.64;100.00
7297;BME280;40758;54.038;11.684;2024-03-23T11:53:17;100144.75;;;6.50;100.00
7297;BME280;40758;54.038;11.684;2024-03-23T11:58:17;100132.81;;;8.62;100.00
7297;BME280;40758;54.038;11.684;2024-03-23T12:03:20;100121.16;;;12.09;100.00
7297;BME280;40758;54.038;11.684;2024-03-23T12:05:49;100108.34;;;13.21;100.00
7297;BME280;40758;54.038;11.684;2024-03-23T12:10:51;100104.88;;;12.87;100.00
7297;BME280;40758;54.038;11.684;2024-03-23T12:13:18;100117.03;;;11.50;100.00
7297;BME280;40758;54.038;11.684;2024-03-23T12:15:45;100132.78;;;10.25;100.00
7297;BME280;40758;54.038;11.684;2024-03-23T12:18:11;100135.94;;;9.02;100.00
7297;BME280;40758;54.038;11.684;2024-03-23T12:20:38;100122.06;;;8.73;100.00
7297;BME280;40758;54.038;11.684;2024-03-23T12:23:08;100113.78;;;10.37;100.00
7297;BME280;40758;54.038;11.684;2024-03-23T12:25:35;100110.34;;;11.97;100.00
7297;BME280;40758;54.038;11.684;2024-03-23T12:28:01;100095.22;;;13.18;100.00
7297;BME280;40758;54.038;11.684;2024-03-23T12:30:28;100098.94;;;14.09;100.00
7297;BME280;40758;54.038;11.684;2024-03-23T12:32:54;100089.13;;;14.93;100.00
7297;BME280;40758;54.038;11.684;2024-03-23T12:35:20;100096.16;;;14.74;100.00
7297;BME280;40758;54.038;11.684;2024-03-23T12:37:45;100101.53;;;13.67;100.00
7297;BME280;40758;54.038;11.684;2024-03-23T12:40:11;100101.00;;;12.44;100.00
7297;BME280;40758;54.038;11.684;2024-03-23T12:42:37;100095.38;;;11.26;100.00
7297;BME280;40758;54.038;11.684;2024-03-23T12:45:07;100105.00;;;10.11;100.00
7297;BME280;40758;54.038;11.684;2024-03-23T12:47:33;100114.34;;;9.14;100.00
7297;BME280;40758;54.038;11.684;2024-03-23T12:49:58;100124.75;;;8.30;100.00
7297;BME280;40758;54.038;11.684;2024-03-23T12:52:24;100141.84;;;7.67;100.00
7297;BME280;40758;54.038;11.684;2024-03-23T12:54:57;100134.13;;;7.33;100.00
7297;BME280;40758;54.038;11.684;2024-03-23T12:57:24;100136.69;;;7.59;100.00
7297;BME280;40758;54.038;11.684;2024-03-23T12:59:53;100145.34;;;8.56;100.00
7297;BME280;40758;54.038;11.684;2024-03-23T13:02:22;100141.63;;;8.75;100.00
7297;BME280;40758;54.038;11.684;2024-03-23T13:04:52;100136.34;;;10.61;100.00
7297;BME280;40758;54.038;11.684;2024-03-23T13:07:19;100140.19;;;11.12;100.00
7297;BME280;40758;54.038;11.684;2024-03-23T13:09:45;100145.53;;;10.83;100.00
7297;BME280;40758;54.038;11.684;2024-03-23T13:12:11;100136.84;;;11.33;100.00
7297;BME280;40758;54.038;11.684;2024-03-23T13:14:38;100128.75;;;12.07;100.00
7297;BME280;40758;54.038;11.684;2024-03-23T13:17:04;100114.38;;;11.38;100.00
7297;BME280;40758;54.038;11.684;2024-03-23T13:19:31;100108.38;;;10.49;100.00
7297;BME280;40758;54.038;11.684;2024-03-23T13:21:58;100093.09;;;10.95;100.00
7297;BME280;40758;54.038;11.684;2024-03-23T13:24:25;100094.38;;;12.57;100.00
7297;BME280;40758;54.038;11.684;2024-03-23T13:26:52;100091.81;;;12.67;100.00
7297;BME280;40758;54.038;11.684;2024-03-23T13:29:19;100093.94;;;12.09;100.00
7297;BME280;40758;54.038;11.684;2024-03-23T13:31:48;100099.00;;;12.56;100.00
7297;BME280;40758;54.038;11.684;2024-03-23T13:34:14;100084.38;;;13.45;100.00
7297;BME280;40758;54.038;11.684;2024-03-23T13:36:49;100086.28;;;13.98;100.00
7297;BME280;40758;54.038;11.684;2024-03-23T13:39:15;100081.97;;;13.75;100.00
7297;BME280;40758;54.038;11.684;2024-03-23T13:41:43;100083.09;;;14.11;100.00
7297;BME280;40758;54.038;11.684;2024-03-23T13:44:09;100094.72;;;14.29;97.28
7297;BME280;40758;54.038;11.684;2024-03-23T13:46:39;100085.75;;;14.33;100.00
7297;BME280;40758;54.038;11.684;2024-03-23T13:49:06;100075.28;;;14.57;95.94
7297;BME280;40758;54.038;11.684;2024-03-23T13:51:32;100100.97;;;14.56;90.45
7297;BME280;40758;54.038;11.684;2024-03-23T13:53:58;100085.47;;;14.67;93.98
7297;BME280;40758;54.038;11.684;2024-03-23T13:56:28;100092.22;;;14.59;83.55
7297;BME280;40758;54.038;11.684;2024-03-23T13:58:58;100094.69;;;13.92;79.46
7297;BME280;40758;54.038;11.684;2024-03-23T14:01:24;100084.81;;;12.71;94.33